Time;durP1;ratioP1;P1;durP2;ratioP2;P2;SDS_P1;SDS_P2;PMS_P1;PMS_P2;Temp;Humidity;BMP_temperature;BMP_pressure;BME280_temperature;BME280_humidity;BME280_pressure;Samples;Min_cycle;Max_cycle;Signal;HPM_P1;HPM_P2
2024/02/17 00:00:48;;;;;;;8.73;5.60;;;12.10;99.90;;;;;;5040021;28;20478;-74
2024/02/17 00:03:17;;;;;;;7.20;5.70;;;12.10;99.90;;;;;;5034418;28;20220;-75
2024/02/17 00:05:43;;;;;;;10.30;5.93;;;12.00;99.90;;;;;;5036414;28;20488;-74
2024/02/17 00:08:08;;;;;;;7.97;5.33;;;12.00;99.90;;;;;;5034191;28;20987;-75
2024/02/17 00:10:35;;;;;;;10.37;6.83;;;12.00;99.90;;;;;;5023272;28;20216;-75
2024/02/17 00:13:01;;;;;;;8.53;5.50;;;12.10;99.90;;;;;;5038547;28;20459;-76
2024/02/17 00:15:26;;;;;;;9.73;5.53;;;12.00;99.90;;;;;;5038823;28;20220;-75
2024/02/17 00:17:52;;;;;;;8.93;6.47;;;12.00;99.90;;;;;;5041110;28;20265;-75
2024/02/17 00:20:18;;;;;;;9.87;5.80;;;12.00;99.90;;;;;;5050367;28;20222;-75
2024/02/17 00:22:43;;;;;;;10.13;6.53;;;12.00;99.90;;;;;;5041981;28;20585;-75
2024/02/17 00:25:09;;;;;;;9.80;6.30;;;12.00;99.90;;;;;;5038504;28;20220;-75
2024/02/17 00:27:35;;;;;;;8.80;6.63;;;12.00;99.90;;;;;;5039651;28;20754;-76
2024/02/17 00:30:02;;;;;;;8.33;5.33;;;12.00;99.90;;;;;;5040601;28;20211;-76
2024/02/17 00:32:28;;;;;;;8.13;5.27;;;12.00;99.90;;;;;;5039280;28;20223;-75
2024/02/17 00:34:53;;;;;;;8.43;5.90;;;11.90;99.90;;;;;;5037988;28;20482;-75
2024/02/17 00:37:19;;;;;;;7.47;6.30;;;12.00;99.90;;;;;;5036552;28;20295;-74
2024/02/17 00:39:45;;;;;;;7.10;4.93;;;12.00;99.90;;;;;;5038833;28;20656;-75
2024/02/17 00:42:10;;;;;;;7.40;5.60;;;12.00;99.90;;;;;;5039357;28;20216;-75
2024/02/17 00:44:37;;;;;;;9.10;6.20;;;12.00;99.90;;;;;;5041620;28;20273;-75
2024/02/17 00:47:03;;;;;;;11.60;7.00;;;12.00;99.90;;;;;;5041300;28;20224;-76
2024/02/17 00:49:28;;;;;;;8.47;5.60;;;12.00;99.90;;;;;;5042327;28;20470;-75
2024/02/17 00:51:54;;;;;;;9.37;5.20;;;11.90;99.90;;;;;;5037781;28;20226;-75
2024/02/17 00:54:19;;;;;;;7.60;5.90;;;11.90;99.90;;;;;;5020614;28;20311;-75
2024/02/17 00:56:45;;;;;;;11.80;6.27;;;11.80;99.90;;;;;;5039714;28;20259;-75
2024/02/17 00:59:11;;;;;;;7.97;5.73;;;11.80;99.90;;;;;;5035464;28;20238;-75
2024/02/17 01:01:37;;;;;;;9.70;6.10;;;11.70;99.90;;;;;;5057617;28;20644;-75
2024/02/17 01:04:03;;;;;;;11.60;6.23;;;11.70;99.90;;;;;;5017192;28;20545;-75
2024/02/17 01:06:28;;;;;;;8.73;6.90;;;11.70;99.90;;;;;;5039263;28;20710;-76
2024/02/17 01:08:55;;;;;;;10.90;6.90;;;11.70;99.90;;;;;;5039600;28;20223;-75
2024/02/17 01:11:21;;;;;;;8.83;6.33;;;11.70;99.90;;;;;;5035206;28;20592;-75
2024/02/17 01:13:47;;;;;;;10.07;6.23;;;11.60;99.90;;;;;;5041209;28;20454;-75
2024/02/17 01:16:13;;;;;;;9.13;6.37;;;11.60;99.90;;;;;;5037424;28;20291;-75
2024/02/17 01:18:39;;;;;;;7.87;5.47;;;11.50;99.90;;;;;;5038048;28;20454;-75
2024/02/17 01:21:04;;;;;;;8.80;6.00;;;11.60;99.90;;;;;;5032719;28;20509;-75
2024/02/17 01:23:30;;;;;;;8.00;5.30;;;11.50;99.90;;;;;;5039464;28;20302;-76
2024/02/17 01:25:56;;;;;;;8.73;6.40;;;11.50;99.90;;;;;;5021447;28;20238;-75
2024/02/17 01:28:22;;;;;;;9.57;6.63;;;11.50;99.90;;;;;;5025730;28;20470;-75
2024/02/17 01:30:47;;;;;;;9.67;6.27;;;11.50;99.90;;;;;;5026498;28;20248;-75
2024/02/17 01:33:13;;;;;;;8.73;5.77;;;11.50;99.90;;;;;;5041384;28;20661;-75
2024/02/17 01:35:39;;;;;;;9.37;7.20;;;11.50;99.90;;;;;;5058191;28;20228;-75
2024/02/17 01:38:07;;;;;;;10.00;6.40;;;11.60;99.90;;;;;;5044420;28;20247;-75
2024/02/17 01:40:33;;;;;;;10.20;6.90;;;11.50;99.90;;;;;;5045777;28;20299;-73
2024/02/17 01:43:00;;;;;;;10.27;6.47;;;11.50;99.90;;;;;;5042620;28;20461;-75
2024/02/17 01:45:26;;;;;;;12.97;7.60;;;11.50;99.90;;;;;;5048642;28;20447;-75
2024/02/17 01:47:54;;;;;;;10.97;7.50;;;11.50;99.90;;;;;;5046530;28;20519;-75
2024/02/17 01:50:20;;;;;;;14.03;7.40;;;11.40;99.90;;;;;;5058123;28;20466;-75
2024/02/17 01:52:46;;;;;;;12.27;7.40;;;11.40;99.90;;;;;;5044802;28;20481;-75
2024/02/17 01:55:13;;;;;;;11.70;7.33;;;11.40;99.90;;;;;;5043114;28;20988;-75
2024/02/17 01:57:40;;;;;;;11.90;7.17;;;11.30;99.90;;;;;;5064720;28;20478;-75
2024/02/17 02:00:07;;;;;;;9.50;6.63;;;11.40;99.90;;;;;;5047154;28;20466;-75
2024/02/17 02:02:45;;;;;;;10.30;7.73;;;11.30;99.90;;;;;;5047720;28;20460;-75
2024/02/17 02:05:11;;;;;;;11.20;7.50;;;11.30;99.90;;;;;;5043309;28;20522;-75
2024/02/17 02:07:37;;;;;;;11.70;7.77;;;11.30;99.90;;;;;;5046848;28;20471;-75
2024/02/17 02:10:04;;;;;;;14.67;7.70;;;11.30;99.90;;;;;;5042993;28;20218;-76
2024/02/17 02:12:29;;;;;;;10.47;7.13;;;11.30;99.90;;;;;;5044412;28;20211;-74
2024/02/17 02:15:02;;;;;;;12.00;7.70;;;11.20;99.90;;;;;;5060089;28;21117;-75
2024/02/17 02:17:28;;;;;;;11.17;6.80;;;11.20;99.90;;;;;;5029615;28;20669;-75
2024/02/17 02:19:54;;;;;;;11.30;6.67;;;11.20;99.90;;;;;;5043979;28;20519;-76
2024/02/17 02:22:20;;;;;;;12.20;8.03;;;11.30;99.90;;;;;;5044393;28;20220;-75
2024/02/17 02:24:48;;;;;;;13.47;7.93;;;11.20;99.90;;;;;;5042802;28;20310;-76
2024/02/17 02:27:14;;;;;;;13.70;7.13;;;11.20;99.90;;;;;;5043035;28;20238;-75
2024/02/17 02:29:47;;;;;;;10.30;7.03;;;11.20;99.90;;;;;;5043295;28;20972;-75
2024/02/17 02:32:13;;;;;;;10.90;6.97;;;11.20;99.90;;;;;;5057711;28;20322;-75
2024/02/17 02:34:39;;;;;;;11.13;6.97;;;11.20;99.90;;;;;;5045925;28;20588;-76
2024/02/17 02:37:05;;;;;;;11.57;7.87;;;11.20;99.90;;;;;;5047673;28;20215;-75
2024/02/17 02:39:30;;;;;;;10.57;6.83;;;11.20;99.90;;;;;;5050247;28;20532;-75
2024/02/17 02:41:56;;;;;;;11.87;7.43;;;11.20;99.90;;;;;;5048397;28;20203;-75
2024/02/17 02:44:22;;;;;;;12.40;6.87;;;11.20;99.90;;;;;;5047321;28;20238;-75
2024/02/17 02:46:47;;;;;;;11.53;6.43;;;11.20;99.90;;;;;;5061921;28;20255;-75
2024/02/17 02:49:13;;;;;;;8.77;5.77;;;11.20;99.90;;;;;;5048876;28;20231;-75
2024/02/17 02:51:39;;;;;;;11.00;7.33;;;11.20;99.90;;;;;;5049914;28;20222;-75
2024/02/17 02:54:04;;;;;;;11.40;7.23;;;11.10;99.90;;;;;;5051170;28;20275;-75
2024/02/17 02:56:30;;;;;;;10.00;6.40;;;11.20;99.90;;;;;;5053797;28;20211;-76
2024/02/17 02:58:56;;;;;;;10.00;7.13;;;11.10;99.90;;;;;;5048884;28;20208;-75
2024/02/17 03:01:21;;;;;;;12.30;7.43;;;11.00;99.90;;;;;;5048510;28;20736;-76
2024/02/17 03:03:50;;;;;;;9.23;6.53;;;10.80;99.90;;;;;;5026997;28;20226;-75
2024/02/17 03:06:16;;;;;;;10.20;6.80;;;10.80;99.90;;;;;;5038968;28;20208;-76
2024/02/17 03:08:42;;;;;;;8.97;6.00;;;10.80;99.90;;;;;;5039991;28;20464;-75
2024/02/17 03:11:07;;;;;;;11.80;6.97;;;10.80;99.90;;;;;;5036401;28;20212;-76
2024/02/17 03:13:36;;;;;;;10.33;6.70;;;10.90;99.90;;;;;;5040868;28;20247;-76
2024/02/17 03:16:02;;;;;;;10.27;5.97;;;11.00;99.90;;;;;;5043788;28;20219;-75
2024/02/17 03:18:27;;;;;;;10.67;7.40;;;11.10;99.90;;;;;;5044630;28;20872;-75
2024/02/17 03:20:53;;;;;;;12.47;7.60;;;11.10;99.90;;;;;;5025574;28;20269;-75
2024/02/17 03:23:19;;;;;;;10.50;6.80;;;11.00;99.90;;;;;;5036290;28;20212;-76
2024/02/17 03:25:45;;;;;;;9.67;6.50;;;11.00;99.90;;;;;;5040836;28;20497;-75
2024/02/17 03:28:10;;;;;;;12.67;6.70;;;11.00;99.90;;;;;;5041385;28;20303;-76
2024/02/17 03:30:36;;;;;;;8.27;5.80;;;10.90;99.90;;;;;;5026980;28;20259;-75
2024/02/17 03:33:02;;;;;;;14.33;7.87;;;10.80;99.90;;;;;;5039295;28;20728;-76
2024/02/17 03:35:27;;;;;;;14.67;6.37;;;10.60;99.90;;;;;;5029056;28;20223;-76
2024/02/17 03:37:53;;;;;;;10.23;6.30;;;10.40;99.90;;;;;;5038421;28;20219;-75
2024/02/17 03:40:20;;;;;;;9.87;6.27;;;10.20;99.90;;;;;;5037561;28;20270;-76
2024/02/17 03:42:46;;;;;;;7.43;5.30;;;10.30;99.90;;;;;;5040887;28;20281;-76
2024/02/17 03:45:12;;;;;;;9.70;6.37;;;10.40;99.90;;;;;;5039871;28;20463;-75
2024/02/17 03:47:38;;;;;;;10.87;6.97;;;10.50;99.90;;;;;;5024932;28;20234;-76
2024/02/17 03:50:04;;;;;;;9.33;6.50;;;10.60;99.90;;;;;;5036803;28;20231;-76
2024/02/17 03:52:29;;;;;;;9.77;6.53;;;10.70;99.90;;;;;;5022934;28;20231;-76
2024/02/17 03:54:55;;;;;;;8.87;5.90;;;10.70;99.90;;;;;;5022945;28;20528;-75
2024/02/17 03:57:21;;;;;;;11.87;6.83;;;10.70;99.90;;;;;;5035903;28;20266;-75
2024/02/17 03:59:46;;;;;;;12.23;6.83;;;10.70;99.90;;;;;;5024253;28;20694;-76
2024/02/17 04:02:12;;;;;;;9.50;6.93;;;10.70;99.90;;;;;;5019081;28;20223;-76
2024/02/17 04:04:39;;;;;;;11.17;6.90;;;10.70;99.90;;;;;;5026690;28;20216;-76
2024/02/17 04:07:05;;;;;;;12.43;7.53;;;10.70;99.90;;;;;;5019521;28;20231;-75
2024/02/17 04:09:30;;;;;;;14.10;6.40;;;10.60;99.90;;;;;;5044498;28;20457;-76
2024/02/17 04:11:56;;;;;;;10.80;6.93;;;10.70;99.90;;;;;;5055201;28;20761;-75
2024/02/17 04:14:23;;;;;;;9.33;6.50;;;10.70;99.90;;;;;;5038462;28;21708;-75
2024/02/17 04:16:49;;;;;;;11.57;7.50;;;10.60;99.90;;;;;;5043454;28;20226;-75
2024/02/17 04:19:14;;;;;;;10.83;6.07;;;10.60;99.90;;;;;;5055581;28;20450;-76
2024/02/17 04:21:40;;;;;;;11.00;6.60;;;10.60;99.90;;;;;;5044178;28;20216;-76
2024/02/17 04:24:06;;;;;;;13.40;7.60;;;10.60;99.90;;;;;;5035091;28;20212;-76
2024/02/17 04:26:32;;;;;;;17.50;7.90;;;10.60;99.90;;;;;;5039222;28;20220;-75
2024/02/17 04:28:58;;;;;;;11.23;7.03;;;10.60;99.90;;;;;;5038012;28;20489;-75
2024/02/17 04:31:24;;;;;;;11.67;7.37;;;10.60;99.90;;;;;;5034626;28;20486;-75
2024/02/17 04:33:50;;;;;;;11.80;7.97;;;10.50;99.90;;;;;;5044086;28;20342;-75
2024/02/17 04:36:15;;;;;;;9.40;6.90;;;10.50;99.90;;;;;;5037599;28;20204;-75
2024/02/17 04:38:41;;;;;;;8.97;6.07;;;10.50;99.90;;;;;;5037433;28;20729;-76
2024/02/17 04:41:07;;;;;;;11.67;6.77;;;10.40;99.90;;;;;;5037656;28;20251;-76
2024/02/17 04:43:33;;;;;;;12.63;7.00;;;10.30;99.90;;;;;;5056432;28;20227;-74
2024/02/17 04:45:59;;;;;;;10.50;6.30;;;10.20;99.90;;;;;;5034863;28;20261;-75
2024/02/17 04:48:25;;;;;;;11.13;6.70;;;10.20;99.90;;;;;;5037160;28;20918;-76
2024/02/17 04:50:50;;;;;;;10.83;7.13;;;10.20;99.90;;;;;;5038727;28;20314;-75
2024/02/17 04:53:16;;;;;;;14.10;7.30;;;10.20;99.90;;;;;;5019096;28;20549;-75
2024/02/17 04:55:42;;;;;;;11.13;7.30;;;10.30;99.90;;;;;;5039863;28;20223;-74
2024/02/17 04:58:07;;;;;;;11.23;7.30;;;10.30;99.90;;;;;;5037904;28;20317;-75
2024/02/17 05:00:33;;;;;;;7.40;5.23;;;10.30;99.90;;;;;;5040115;28;20716;-76
2024/02/17 05:02:59;;;;;;;7.33;5.27;;;10.20;99.90;;;;;;5022867;28;20221;-75
2024/02/17 05:05:25;;;;;;;9.60;6.37;;;10.20;99.90;;;;;;5036364;28;20991;-75
2024/02/17 05:07:50;;;;;;;9.40;5.93;;;10.20;99.90;;;;;;5041598;28;20228;-76
2024/02/17 05:10:16;;;;;;;10.23;6.60;;;10.20;99.90;;;;;;5036228;28;20280;-75
2024/02/17 05:12:42;;;;;;;7.97;5.33;;;10.20;99.90;;;;;;5041500;28;20227;-75
2024/02/17 05:15:08;;;;;;;7.50;5.43;;;10.20;99.90;;;;;;5037011;28;20220;-75
2024/02/17 05:17:35;;;;;;;8.60;5.70;;;10.10;99.90;;;;;;5023512;28;20216;-75
2024/02/17 05:20:01;;;;;;;7.83;5.60;;;10.10;99.90;;;;;;5041049;28;20524;-75
2024/02/17 05:22:26;;;;;;;8.67;4.97;;;10.10;99.90;;;;;;5034534;28;20450;-76
2024/02/17 05:24:52;;;;;;;6.97;4.60;;;10.10;99.90;;;;;;5023562;28;20462;-76
2024/02/17 05:27:18;;;;;;;5.47;4.90;;;10.10;99.90;;;;;;5040516;28;20314;-75
2024/02/17 05:29:43;;;;;;;13.87;5.77;;;10.10;99.90;;;;;;5047224;28;20226;-75
2024/02/17 05:32:09;;;;;;;10.03;5.63;;;10.00;99.90;;;;;;5043910;28;20277;-76
2024/02/17 05:34:36;;;;;;;6.77;5.37;;;9.90;99.90;;;;;;5028241;28;20678;-75
2024/02/17 05:37:03;;;;;;;8.33;5.50;;;9.90;99.90;;;;;;5047173;28;20224;-76
2024/02/17 05:39:31;;;;;;;9.50;5.50;;;9.90;99.90;;;;;;5054402;28;20462;-75
2024/02/17 05:41:57;;;;;;;4.93;4.37;;;10.00;99.90;;;;;;5042954;28;21102;-75
2024/02/17 05:44:23;;;;;;;7.60;4.77;;;9.90;99.90;;;;;;5035905;28;20478;-76
2024/02/17 05:46:48;;;;;;;11.07;5.63;;;10.00;99.90;;;;;;5039265;28;20494;-75
2024/02/17 05:49:14;;;;;;;8.27;4.87;;;9.90;99.90;;;;;;5035968;28;20230;-75
2024/02/17 05:51:40;;;;;;;8.33;5.50;;;9.90;99.90;;;;;;5040713;28;20228;-75
2024/02/17 05:54:05;;;;;;;8.30;5.43;;;9.90;99.90;;;;;;5033666;28;20653;-76
2024/02/17 05:56:31;;;;;;;7.17;4.70;;;9.90;99.90;;;;;;5043150;28;20210;-75
2024/02/17 05:58:57;;;;;;;5.37;4.00;;;9.90;99.90;;;;;;5036026;28;20241;-75
2024/02/17 06:01:23;;;;;;;7.80;4.60;;;9.90;99.90;;;;;;5032551;28;20458;-75
2024/02/17 06:03:48;;;;;;;8.83;5.00;;;9.90;99.90;;;;;;5037231;28;20233;-75
2024/02/17 06:06:14;;;;;;;8.60;5.70;;;9.90;99.90;;;;;;5038124;28;20251;-76
2024/02/17 06:08:42;;;;;;;8.20;4.90;;;9.90;99.90;;;;;;5042467;28;20239;-75
2024/02/17 06:11:08;;;;;;;7.20;5.27;;;9.90;99.90;;;;;;5035100;28;20243;-76
2024/02/17 06:13:34;;;;;;;5.50;4.83;;;9.90;99.90;;;;;;5040957;28;20458;-76
2024/02/17 06:15:59;;;;;;;6.90;5.10;;;9.90;99.90;;;;;;5023534;28;20277;-75
2024/02/17 06:21:19;;;;;;;8.67;5.50;;;9.90;99.90;;;;;;5037495;28;20220;-75
2024/02/17 06:23:47;;;;;;;15.50;10.13;;;9.90;99.90;;;;;;5041112;28;20478;-75
2024/02/17 06:26:27;;;;;;;13.87;10.10;;;9.80;99.90;;;;;;5022747;28;20549;-75
2024/02/17 06:28:55;;;;;;;17.87;13.50;;;9.80;99.90;;;;;;5022960;28;20242;-74
2024/02/17 06:31:21;;;;;;;19.00;14.87;;;9.80;99.90;;;;;;5037178;28;20559;-76
2024/02/17 06:33:47;;;;;;;15.73;12.13;;;9.80;99.90;;;;;;5041867;28;20473;-75
2024/02/17 06:36:13;;;;;;;18.10;12.70;;;9.80;99.90;;;;;;5037272;28;20477;-76
2024/02/17 06:38:40;;;;;;;21.40;14.03;;;9.80;99.90;;;;;;5026056;28;20470;-75
2024/02/17 06:41:06;;;;;;;40.07;29.50;;;9.80;99.90;;;;;;5039886;28;20252;-75
2024/02/17 06:43:32;;;;;;;64.37;43.70;;;9.70;99.90;;;;;;5041990;28;20481;-75
2024/02/17 06:45:59;;;;;;;51.00;34.73;;;9.70;99.90;;;;;;5037936;28;20226;-74
2024/02/17 06:48:28;;;;;;;32.30;20.43;;;9.60;99.90;;;;;;5043699;28;20995;-75
2024/02/17 06:50:54;;;;;;;24.37;16.50;;;9.60;99.90;;;;;;5048031;28;20453;-74
2024/02/17 06:53:20;;;;;;;34.53;21.00;;;9.50;99.90;;;;;;5040550;28;20846;-75
2024/02/17 06:55:46;;;;;;;22.47;17.23;;;9.40;99.90;;;;;;5042528;28;20224;-75
2024/02/17 06:58:12;;;;;;;18.17;12.67;;;9.30;99.90;;;;;;5037436;28;20469;-75
2024/02/17 07:00:38;;;;;;;18.80;11.80;;;9.30;99.90;;;;;;5026439;28;20466;-76
2024/02/17 07:03:04;;;;;;;16.17;10.80;;;9.40;99.90;;;;;;5039381;28;20994;-75
2024/02/17 07:05:31;;;;;;;13.47;10.10;;;9.40;99.90;;;;;;5042993;28;20226;-75
2024/02/17 07:07:58;;;;;;;12.70;9.07;;;9.40;99.90;;;;;;5040546;28;20488;-76
2024/02/17 07:10:24;;;;;;;14.50;8.67;;;9.40;99.90;;;;;;5034040;28;20454;-75
2024/02/17 07:12:50;;;;;;;15.00;8.30;;;9.40;99.90;;;;;;5027982;28;20576;-75
2024/02/17 07:15:16;;;;;;;11.87;8.40;;;9.40;99.90;;;;;;5034667;28;20253;-76
2024/02/17 07:17:42;;;;;;;8.70;6.83;;;9.30;99.90;;;;;;5043149;28;20490;-76
2024/02/17 07:20:09;;;;;;;12.93;7.10;;;9.30;99.90;;;;;;5020328;28;20220;-75
2024/02/17 07:22:35;;;;;;;11.13;7.00;;;9.20;99.90;;;;;;5037793;28;20473;-76
2024/02/17 07:25:01;;;;;;;8.63;5.90;;;9.20;99.90;;;;;;5040534;28;20475;-75
2024/02/17 07:27:27;;;;;;;7.60;5.53;;;9.20;99.90;;;;;;5019546;28;20473;-76
2024/02/17 07:29:53;;;;;;;9.87;6.23;;;9.20;99.90;;;;;;5037860;28;20231;-75
2024/02/17 07:32:22;;;;;;;9.03;6.00;;;9.30;99.90;;;;;;5035487;28;20454;-76
2024/02/17 07:34:51;;;;;;;9.80;5.80;;;9.30;99.90;;;;;;5040920;28;20555;-74
2024/02/17 07:37:20;;;;;;;14.53;5.67;;;9.40;99.90;;;;;;5050176;28;20457;-77
2024/02/17 07:39:46;;;;;;;12.20;6.10;;;9.30;99.90;;;;;;5041730;28;20473;-76
2024/02/17 07:42:12;;;;;;;8.90;6.40;;;9.30;99.90;;;;;;5037418;28;20465;-76
2024/02/17 07:44:42;;;;;;;7.77;5.57;;;9.30;99.90;;;;;;5042610;28;20463;-75
2024/02/17 07:47:08;;;;;;;9.70;6.43;;;9.20;99.90;;;;;;5037359;28;20470;-75
2024/02/17 07:49:33;;;;;;;10.90;7.53;;;9.30;99.90;;;;;;5040213;28;20466;-75
2024/02/17 07:52:00;;;;;;;16.30;9.87;;;9.30;99.90;;;;;;5041730;28;20304;-75
2024/02/17 07:54:26;;;;;;;13.03;9.80;;;9.40;99.90;;;;;;5038197;28;20274;-75
2024/02/17 07:56:51;;;;;;;12.57;8.83;;;9.40;99.90;;;;;;5004237;28;1109860;-75
2024/02/17 07:59:17;;;;;;;17.97;9.37;;;9.40;99.90;;;;;;5022757;28;20215;-75
2024/02/17 08:01:43;;;;;;;11.10;8.10;;;9.40;99.90;;;;;;5045014;28;20222;-76
2024/02/17 08:04:08;;;;;;;10.33;7.23;;;9.30;99.90;;;;;;5031394;28;20203;-75
2024/02/17 08:06:34;;;;;;;13.83;7.53;;;9.30;99.90;;;;;;5042025;28;20212;-75
2024/02/17 08:09:00;;;;;;;11.13;6.83;;;9.30;99.90;;;;;;5026928;28;20255;-75
2024/02/17 08:11:25;;;;;;;10.67;6.77;;;9.30;99.90;;;;;;5019727;28;20231;-75
2024/02/17 08:13:51;;;;;;;17.23;8.57;;;9.30;99.90;;;;;;5042359;28;20219;-75
2024/02/17 08:16:17;;;;;;;11.07;7.33;;;9.40;99.90;;;;;;5033358;28;20781;-76
2024/02/17 08:18:43;;;;;;;13.03;7.00;;;9.40;99.90;;;;;;5038926;28;20289;-76
2024/02/17 08:21:09;;;;;;;15.33;9.63;;;9.50;99.90;;;;;;5039213;28;20223;-76
2024/02/17 08:23:35;;;;;;;21.13;13.20;;;9.50;99.90;;;;;;5040067;28;20489;-75
2024/02/17 08:26:01;;;;;;;22.10;11.50;;;9.50;99.90;;;;;;5041064;28;20470;-75
2024/02/17 08:28:28;;;;;;;10.90;7.53;;;9.50;99.90;;;;;;5038085;28;20228;-75
2024/02/17 08:30:53;;;;;;;19.43;8.43;;;9.50;99.90;;;;;;5037780;28;20232;-75
2024/02/17 08:33:19;;;;;;;14.00;7.67;;;9.50;99.90;;;;;;5037974;28;20470;-76
2024/02/17 08:35:45;;;;;;;10.57;7.40;;;9.50;99.90;;;;;;5040060;28;20223;-73
2024/02/17 08:38:11;;;;;;;12.60;7.83;;;9.50;99.90;;;;;;5042697;28;20238;-76
2024/02/17 08:40:37;;;;;;;12.17;7.23;;;9.60;99.90;;;;;;5031988;28;20231;-74
2024/02/17 08:43:04;;;;;;;12.97;7.57;;;9.60;99.90;;;;;;5040515;28;20476;-77
2024/02/17 08:45:31;;;;;;;14.53;8.47;;;9.60;99.90;;;;;;5037942;28;20220;-76
2024/02/17 08:47:57;;;;;;;12.73;7.53;;;9.70;99.90;;;;;;5038230;28;20472;-75
2024/02/17 08:50:22;;;;;;;12.20;7.20;;;9.70;99.90;;;;;;5036653;28;20495;-75
2024/02/17 08:52:49;;;;;;;11.03;6.80;;;9.70;99.90;;;;;;5038576;28;20220;-74
2024/02/17 08:55:15;;;;;;;10.87;6.80;;;9.80;99.90;;;;;;5033460;28;20466;-75
2024/02/17 08:57:40;;;;;;;10.37;7.10;;;9.80;99.90;;;;;;5038823;28;20470;-75
2024/02/17 09:00:07;;;;;;;17.07;9.97;;;9.80;99.90;;;;;;5016147;28;20476;-76
2024/02/17 09:02:33;;;;;;;15.23;9.30;;;9.80;99.90;;;;;;5035402;28;20295;-75
2024/02/17 09:04:59;;;;;;;13.37;8.60;;;9.80;99.90;;;;;;5017638;28;20884;-74
2024/02/17 09:07:27;;;;;;;11.97;7.67;;;9.80;99.90;;;;;;5034736;28;20235;-75
2024/02/17 09:09:53;;;;;;;13.30;7.70;;;9.80;99.90;;;;;;5038633;28;20450;-76
2024/02/17 09:12:20;;;;;;;13.40;8.47;;;9.90;99.90;;;;;;5039387;28;20478;-75
2024/02/17 09:14:46;;;;;;;11.90;8.27;;;9.90;99.90;;;;;;5036632;28;20462;-74
2024/02/17 09:17:13;;;;;;;11.67;7.50;;;10.00;99.90;;;;;;5017824;28;20462;-75
2024/02/17 09:19:39;;;;;;;10.50;6.23;;;10.00;99.90;;;;;;5037473;28;20478;-75
2024/02/17 09:22:05;;;;;;;12.50;6.13;;;10.00;99.90;;;;;;5036020;28;20554;-75
2024/02/17 09:24:31;;;;;;;9.23;6.30;;;10.00;99.90;;;;;;5017897;28;20550;-75
2024/02/17 09:27:04;;;;;;;15.93;7.27;;;10.10;99.90;;;;;;5035680;28;20299;-74
2024/02/17 09:29:33;;;;;;;10.73;6.17;;;10.10;99.90;;;;;;5033033;28;20662;-76
2024/02/17 09:32:07;;;;;;;9.77;7.07;;;10.10;99.90;;;;;;5036653;28;20458;-77
2024/02/17 09:34:33;;;;;;;7.90;6.03;;;10.20;99.90;;;;;;5015570;28;20462;-75
2024/02/17 09:36:59;;;;;;;9.93;6.47;;;10.20;99.90;;;;;;5035117;28;21074;-75
2024/02/17 09:39:26;;;;;;;8.27;6.37;;;10.20;99.90;;;;;;5032950;28;20472;-75
2024/02/17 09:41:52;;;;;;;10.37;7.30;;;10.20;99.90;;;;;;5037398;28;20211;-76
2024/02/17 09:44:18;;;;;;;9.90;6.47;;;10.30;99.90;;;;;;5032707;28;20464;-75
2024/02/17 09:46:43;;;;;;;15.57;6.43;;;10.30;99.90;;;;;;5037508;28;20462;-75
2024/02/17 09:49:09;;;;;;;10.33;7.07;;;10.30;99.90;;;;;;5018482;28;20769;-75
2024/02/17 09:51:36;;;;;;;15.73;7.87;;;10.30;99.90;;;;;;5033845;28;20252;-75
2024/02/17 09:54:03;;;;;;;10.50;7.03;;;10.40;99.90;;;;;;5032669;28;20474;-76
2024/02/17 09:56:29;;;;;;;10.33;6.93;;;10.40;99.90;;;;;;5039155;28;20466;-76
2024/02/17 09:58:55;;;;;;;11.90;6.63;;;10.40;99.90;;;;;;5034969;28;20473;-75
2024/02/17 10:01:20;;;;;;;8.93;6.27;;;10.50;99.90;;;;;;5017742;28;20352;-75
2024/02/17 10:03:46;;;;;;;9.77;6.50;;;10.50;99.90;;;;;;5032009;28;20294;-76
2024/02/17 10:06:16;;;;;;;10.80;6.20;;;10.60;99.90;;;;;;5020369;28;20739;-76
2024/02/17 10:08:45;;;;;;;9.73;6.90;;;10.60;99.90;;;;;;5034559;28;20585;-76
2024/02/17 10:11:14;;;;;;;12.27;6.80;;;10.60;99.90;;;;;;5031075;28;20566;-76
2024/02/17 10:13:41;;;;;;;15.10;6.80;;;10.70;99.90;;;;;;5041732;28;20504;-76
2024/02/17 10:16:07;;;;;;;12.93;7.93;;;10.80;99.90;;;;;;5034185;28;20465;-75
2024/02/17 10:18:33;;;;;;;12.73;9.00;;;10.80;99.90;;;;;;5038415;28;20520;-76
2024/02/17 10:20:58;;;;;;;13.10;9.93;;;10.80;99.90;;;;;;5036662;28;20674;-76
2024/02/17 10:23:25;;;;;;;10.87;7.53;;;10.80;99.90;;;;;;5030517;28;20636;-75
2024/02/17 10:25:50;;;;;;;11.03;7.07;;;10.80;99.90;;;;;;5036916;28;20306;-76
2024/02/17 10:28:16;;;;;;;8.43;6.03;;;10.90;99.90;;;;;;5034715;28;20552;-75
2024/02/17 10:30:42;;;;;;;13.80;7.93;;;10.90;99.90;;;;;;5049539;28;20219;-76
2024/02/17 10:33:15;;;;;;;16.03;13.60;;;10.90;99.90;;;;;;5035001;28;20224;-74
2024/02/17 10:35:42;;;;;;;20.43;15.90;;;11.00;99.90;;;;;;5037128;28;20238;-75
2024/02/17 10:38:09;;;;;;;17.77;15.20;;;11.00;99.90;;;;;;5027962;28;20462;-75
2024/02/17 10:40:35;;;;;;;22.70;16.87;;;11.00;99.90;;;;;;5030709;28;20482;-75
2024/02/17 10:43:01;;;;;;;23.87;17.43;;;11.00;99.90;;;;;;5035397;28;20491;-75
2024/02/17 10:45:27;;;;;;;15.83;10.70;;;11.00;99.90;;;;;;5031415;28;20301;-75
2024/02/17 10:48:02;;;;;;;12.93;7.67;;;11.10;99.90;;;;;;5038321;28;20461;-75
2024/02/17 10:50:29;;;;;;;14.30;8.13;;;11.10;99.90;;;;;;5033384;28;20224;-75
2024/02/17 10:53:09;;;;;;;9.97;6.77;;;11.10;99.90;;;;;;5036336;28;20461;-74
2024/02/17 10:55:39;;;;;;;12.27;7.40;;;11.20;99.90;;;;;;5040311;28;20462;-75
2024/02/17 10:58:14;;;;;;;12.73;6.47;;;11.10;99.90;;;;;;5037738;28;20549;-75
2024/02/17 11:00:47;;;;;;;13.83;8.00;;;11.20;99.90;;;;;;5039451;28;20566;-74
2024/02/17 11:03:17;;;;;;;14.00;8.40;;;11.20;99.90;;;;;;5039637;28;20470;-75
2024/02/17 11:05:46;;;;;;;11.13;8.37;;;11.20;99.90;;;;;;5039406;28;20466;-75
2024/02/17 11:08:12;;;;;;;13.37;8.13;;;11.20;99.90;;;;;;5032709;28;20536;-76
2024/02/17 11:10:41;;;;;;;11.40;7.70;;;11.20;99.90;;;;;;5041691;28;20559;-76
2024/02/17 11:13:23;;;;;;;12.57;9.30;;;11.30;99.90;;;;;;5025625;28;20486;-75
2024/02/17 11:16:01;;;;;;;12.80;8.50;;;11.30;99.90;;;;;;5042938;28;20983;-76
2024/02/17 11:18:26;;;;;;;14.20;8.17;;;11.30;99.90;;;;;;5055525;28;20460;-75
2024/02/17 11:20:52;;;;;;;11.13;7.93;;;11.40;99.90;;;;;;5043450;28;20473;-75
2024/02/17 11:23:18;;;;;;;9.40;7.10;;;11.40;99.90;;;;;;5035027;28;20315;-75
2024/02/17 11:25:44;;;;;;;11.27;7.00;;;11.40;99.90;;;;;;5036151;28;20228;-75
2024/02/17 11:28:18;;;;;;;12.40;7.10;;;11.40;99.90;;;;;;5038156;28;20297;-75
2024/02/17 11:30:55;;;;;;;10.53;6.77;;;11.50;99.90;;;;;;5021851;28;20688;-76
2024/02/17 11:33:27;;;;;;;13.30;6.93;;;11.50;99.90;;;;;;5035282;28;20466;-76
2024/02/17 11:35:55;;;;;;;14.07;7.07;;;11.50;99.90;;;;;;5022747;28;20900;-75
2024/02/17 11:38:26;;;;;;;9.40;6.10;;;11.50;99.90;;;;;;5034421;28;20506;-75
2024/02/17 11:40:57;;;;;;;15.87;6.90;;;11.50;99.90;;;;;;5038604;28;20454;-75
2024/02/17 11:43:24;;;;;;;12.23;7.10;;;11.60;99.90;;;;;;5040372;28;20462;-76
2024/02/17 11:45:51;;;;;;;15.73;7.97;;;11.60;99.90;;;;;;5021235;28;20455;-76
2024/02/17 11:48:24;;;;;;;16.30;7.83;;;11.60;99.90;;;;;;5026998;28;20497;-74
2024/02/17 11:50:50;;;;;;;13.00;6.93;;;11.70;99.90;;;;;;5038397;28;20843;-75
2024/02/17 11:53:16;;;;;;;11.27;6.97;;;11.70;99.90;;;;;;5019735;28;20474;-75
2024/02/17 11:55:42;;;;;;;10.80;7.20;;;11.70;99.90;;;;;;5034773;28;20211;-75
2024/02/17 11:58:09;;;;;;;18.10;7.30;;;11.80;99.90;;;;;;5037040;28;20247;-75
2024/02/17 12:00:48;;;;;;;12.80;6.63;;;11.80;99.90;;;;;;5053186;28;20458;-75
2024/02/17 12:03:14;;;;;;;15.07;9.00;;;11.80;99.90;;;;;;5032781;28;20457;-75
2024/02/17 12:05:41;;;;;;;11.93;8.10;;;11.80;99.90;;;;;;5042333;28;20458;-75
2024/02/17 12:08:07;;;;;;;14.10;9.00;;;11.90;99.90;;;;;;5038590;28;20569;-73
2024/02/17 12:10:33;;;;;;;14.67;10.27;;;11.90;99.90;;;;;;5032025;28;20536;-75
2024/02/17 12:12:59;;;;;;;11.90;8.60;;;12.00;99.90;;;;;;5050453;28;20304;-75
2024/02/17 12:15:25;;;;;;;9.97;7.30;;;12.00;99.90;;;;;;5032969;28;20529;-75
2024/02/17 12:17:52;;;;;;;8.93;6.60;;;12.20;99.90;;;;;;5037907;28;20299;-75
2024/02/17 12:20:18;;;;;;;10.87;6.47;;;12.20;99.90;;;;;;5034663;28;20243;-75
2024/02/17 12:22:50;;;;;;;13.00;8.37;;;12.20;99.90;;;;;;5037579;28;20466;-74
2024/02/17 12:25:17;;;;;;;9.80;6.47;;;12.30;99.90;;;;;;5033967;28;20497;-75
2024/02/17 12:27:46;;;;;;;9.03;6.73;;;12.40;99.90;;;;;;5040422;28;20470;-72
2024/02/17 12:30:13;;;;;;;8.87;7.47;;;12.40;99.90;;;;;;5030875;28;20495;-75
2024/02/17 12:32:42;;;;;;;10.50;7.93;;;12.40;99.90;;;;;;5039650;28;20458;-75
2024/02/17 12:35:14;;;;;;;12.37;8.07;;;12.40;99.90;;;;;;5035761;28;20884;-76
2024/02/17 12:37:46;;;;;;;9.57;6.27;;;12.40;99.90;;;;;;5038891;28;20471;-75
2024/02/17 12:40:15;;;;;;;9.60;6.73;;;12.50;99.90;;;;;;5033623;28;20489;-75
2024/02/17 12:42:42;;;;;;;9.50;5.90;;;12.50;99.90;;;;;;5037574;28;20457;-75